Time;durP1;ratioP1;P1;durP2;ratioP2;P2;SDS_P1;SDS_P2;PMS_P1;PMS_P2;Temp;Humidity;BMP_temperature;BMP_pressure;BME280_temperature;BME280_humidity;BME280_pressure;Samples;Min_cycle;Max_cycle;Signal;HPM_P1;HPM_P2
2023/02/28 11:30:34;;;;;;;9.93;2.70;;;7.90;21.10;;;;;;6186687;23;20479;-84
2023/02/28 15:10:14;;;;;;;6.03;3.07;;;6.40;18.40;;;;;;6211714;23;20473;-83
2023/02/28 15:12:42;;;;;;;7.13;3.50;;;6.90;21.10;;;;;;6222393;23;20415;-82
2023/02/28 15:15:17;;;;;;;7.63;2.87;;;7.00;20.70;;;;;;6213016;23;20463;-82
2023/02/28 15:17:47;;;;;;;6.60;3.23;;;7.20;17.70;;;;;;6185844;23;20416;-82
2023/02/28 15:20:16;;;;;;;7.27;2.80;;;8.00;17.10;;;;;;6222429;23;20757;-82
2023/02/28 15:22:44;;;;;;;7.47;3.40;;;8.70;13.30;;;;;;6223209;23;20463;-85
2023/02/28 15:25:18;;;;;;;5.93;3.10;;;9.00;12.60;;;;;;6210462;23;20511;-85
2023/02/28 15:27:49;;;;;;;7.40;3.50;;;8.80;8.50;;;;;;6213070;23;20442;-85
2023/02/28 15:30:19;;;;;;;5.60;3.07;;;8.20;10.80;;;;;;6222346;23;20457;-84
2023/02/28 15:33:02;;;;;;;5.90;2.90;;;7.90;16.50;;;;;;6213065;23;20491;-84
2023/02/28 15:35:32;;;;;;;6.00;3.30;;;7.40;16.20;;;;;;6211916;23;20470;-86
2023/02/28 15:38:05;;;;;;;7.83;3.70;;;7.10;18.70;;;;;;6213198;23;20404;-85
2023/02/28 15:40:38;;;;;;;12.70;4.30;;;6.80;19.20;;;;;;6213313;23;20399;-85
2023/02/28 15:43:08;;;;;;;8.63;3.07;;;7.00;21.90;;;;;;6213750;23;20435;-84
2023/02/28 15:45:42;;;;;;;7.57;3.13;;;7.00;23.20;;;;;;6222911;23;20947;-84
2023/02/28 15:48:18;;;;;;;7.93;3.47;;;6.80;25.60;;;;;;6214060;23;20461;-84
2023/02/28 15:50:48;;;;;;;7.70;3.77;;;6.70;26.40;;;;;;6214916;23;20402;-84
2023/02/28 15:53:18;;;;;;;8.27;4.27;;;6.50;25.30;;;;;;6213506;23;20411;-85
2023/02/28 15:55:52;;;;;;;7.30;3.00;;;6.40;22.90;;;;;;6214054;23;20523;-85
2023/02/28 15:58:21;;;;;;;7.93;3.27;;;6.30;19.50;;;;;;6214210;23;20396;-83
2023/02/28 16:01:18;;;;;;;7.20;3.57;;;6.10;19.60;;;;;;6223423;23;20744;-83
2023/02/28 16:03:48;;;;;;;6.90;3.20;;;6.00;24.30;;;;;;6215401;23;20729;-84
2023/02/28 16:06:39;;;;;;;8.60;3.93;;;5.90;21.40;;;;;;6188937;23;20412;-83
2023/02/28 16:09:08;;;;;;;6.97;4.03;;;5.80;28.70;;;;;;6214363;23;20506;-83
2023/02/28 16:11:40;;;;;;;9.30;3.90;;;5.80;28.50;;;;;;6224848;23;20423;-83
2023/02/28 16:14:09;;;;;;;9.47;4.23;;;5.70;29.50;;;;;;6214685;23;20400;-83
2023/02/28 16:16:43;;;;;;;14.63;5.03;;;5.90;33.20;;;;;;6214830;23;20530;-83
2023/02/28 16:19:10;;;;;;;10.00;5.00;;;5.60;30.90;;;;;;6214323;23;20453;-83
2023/02/28 16:21:37;;;;;;;18.87;6.87;;;5.50;32.20;;;;;;6215183;23;20411;-83
2023/02/28 16:24:04;;;;;;;18.50;9.70;;;5.40;34.00;;;;;;6214877;23;20815;-83
2023/02/28 16:26:33;;;;;;;13.80;6.80;;;5.10;34.00;;;;;;6224910;23;20412;-83
2023/02/28 16:29:03;;;;;;;6.97;3.80;;;5.20;35.40;;;;;;6214153;23;20470;-83
2023/02/28 16:31:30;;;;;;;8.90;4.73;;;5.20;35.50;;;;;;6215162;23;20483;-83
2023/02/28 16:33:57;;;;;;;17.30;5.77;;;5.10;37.20;;;;;;6224519;23;21147;-83
2023/02/28 16:36:25;;;;;;;12.90;5.23;;;5.20;39.60;;;;;;6214716;23;20442;-83
2023/02/28 16:38:56;;;;;;;9.13;5.40;;;5.20;40.70;;;;;;6187094;23;20448;-83
2023/02/28 16:41:26;;;;;;;7.00;4.40;;;5.00;39.10;;;;;;6214541;23;20423;-82
2023/02/28 16:43:58;;;;;;;6.00;2.30;;;4.90;38.90;;;;;;6211911;23;20452;-82
2023/02/28 16:46:30;;;;;;;9.50;4.03;;;4.90;38.40;;;;;;6223533;23;20424;-83
2023/02/28 16:48:58;;;;;;;11.00;4.13;;;4.70;38.20;;;;;;6212907;23;20427;-83
2023/02/28 16:51:24;;;;;;;6.13;3.33;;;4.60;41.00;;;;;;6214072;23;20490;-83
2023/02/28 16:53:51;;;;;;;8.27;5.10;;;4.50;41.30;;;;;;6212352;23;20750;-83
2023/02/28 16:56:20;;;;;;;6.53;4.03;;;4.20;44.70;;;;;;6213628;23;20444;-82
2023/02/28 16:58:48;;;;;;;16.50;4.43;;;4.10;44.40;;;;;;6223554;23;20415;-82
2023/02/28 17:01:16;;;;;;;9.37;4.30;;;4.10;45.40;;;;;;6214307;23;20412;-82
2023/02/28 17:03:44;;;;;;;8.57;4.50;;;3.90;47.50;;;;;;6214270;23;20412;-82
2023/02/28 17:06:20;;;;;;;10.40;5.23;;;3.60;49.10;;;;;;6212044;23;20431;-82
2023/02/28 17:08:47;;;;;;;11.93;4.97;;;3.30;51.70;;;;;;6212838;23;20430;-83
2023/02/28 19:59:31;;;;;;;10.93;6.87;;;0.40;85.20;;;;;;6212014;23;20439;-86
2023/02/28 20:01:58;;;;;;;11.50;6.60;;;0.50;84.90;;;;;;6225746;23;20404;-86
2023/02/28 20:04:26;;;;;;;12.70;6.30;;;0.50;84.70;;;;;;6188367;23;20436;-86
2023/02/28 20:09:24;;;;;;;10.80;6.50;;;0.60;85.20;;;;;;6209383;23;20444;-87
2023/02/28 20:11:58;;;;;;;11.80;7.50;;;0.60;85.20;;;;;;6224678;23;20458;-86
2023/02/28 20:14:21;;;;;;;12.30;7.20;;;0.60;85.40;;;;;;6214497;23;20504;-86
2023/02/28 20:27:06;;;;;;;10.23;6.90;;;0.00;87.90;;;;;;6202652;23;20439;-86
2023/02/28 20:29:40;;;;;;;10.83;6.73;;;0.30;88.60;;;;;;6215163;23;20846;-86
2023/02/28 20:34:38;;;;;;;10.20;6.93;;;0.00;89.90;;;;;;6198550;23;20498;-88
2023/02/28 20:37:09;;;;;;;10.35;6.47;;;-0.20;90.90;;;;;;6214138;23;20951;-87
2023/02/28 20:39:36;;;;;;;10.50;7.10;;;-0.30;91.90;;;;;;6214905;23;20157;-88
